AAL5621 KOKC-KABQ
Flight info
| Callsign | AAL5621 |
|---|---|
| Flight time | 1h 19m |
| Altitude | 28000 |
| Route | KOKC OLGUY3 YOUSE DCT ASAZE V140 PNH J6 TCC V12 ACH DCT KIIDD COLTR4 KABQ |
| Aircraft | B738/M-SDE2E3FGIRWY/L |
Departure
| Time | 2026-04-27 23:53 |
|---|---|
| Airport | OKC Will Rogers World Airport (KOKC) |
Arrival
| Time | 2026-04-28 01:12 |
|---|---|
| Airport | Albuquerque International Sunport (KABQ) |
| Time | Latitude | Longitude | Altitude | Speed | Heading |
|---|---|---|---|---|---|
| 2026-04-27 23:37 | 35.39479 | -97.59801 | 1301 ft | 0 kts | 359° |
| 2026-04-27 23:46 | 35.39465 | -97.59801 | 1300 ft | 3 kts | 359° |
| 2026-04-27 23:46 | 35.39447 | -97.59806 | 1300 ft | 3 kts | 55° |
| 2026-04-27 23:46 | 35.39442 | -97.59820 | 1300 ft | 0 kts | 91° |
| 2026-04-27 23:48 | 35.39442 | -97.59818 | 1300 ft | 3 kts | 91° |
| 2026-04-27 23:48 | 35.39439 | -97.59792 | 1300 ft | 3 kts | 105° |
| 2026-04-27 23:48 | 35.39422 | -97.59744 | 1301 ft | 12 kts | 112° |
| 2026-04-27 23:48 | 35.39361 | -97.59621 | 1301 ft | 22 kts | 131° |
| 2026-04-27 23:49 | 35.39273 | -97.59557 | 1299 ft | 16 kts | 156° |
| 2026-04-27 23:49 | 35.39221 | -97.59527 | 1298 ft | 9 kts | 173° |
| 2026-04-27 23:49 | 35.39141 | -97.59527 | 1295 ft | 17 kts | 184° |
| 2026-04-27 23:49 | 35.38972 | -97.59455 | 1295 ft | 22 kts | 96° |
| 2026-04-27 23:50 | 35.38975 | -97.59229 | 1294 ft | 28 kts | 88° |
| 2026-04-27 23:50 | 35.38941 | -97.59073 | 1296 ft | 14 kts | 150° |
| 2026-04-27 23:50 | 35.38874 | -97.59060 | 1295 ft | 16 kts | 180° |
| 2026-04-27 23:50 | 35.38757 | -97.59062 | 1293 ft | 18 kts | 180° |
| 2026-04-27 23:51 | 35.38627 | -97.59059 | 1296 ft | 19 kts | 177° |
| 2026-04-27 23:51 | 35.38491 | -97.59060 | 1296 ft | 22 kts | 180° |
| 2026-04-27 23:51 | 35.38297 | -97.59056 | 1294 ft | 32 kts | 178° |
| 2026-04-27 23:51 | 35.38050 | -97.59062 | 1294 ft | 40 kts | 180° |
| 2026-04-27 23:52 | 35.37884 | -97.59054 | 1292 ft | 15 kts | 164° |
| 2026-04-27 23:52 | 35.37838 | -97.58997 | 1293 ft | 12 kts | 103° |
| 2026-04-27 23:52 | 35.37930 | -97.58891 | 1292 ft | 31 kts | 353° |
| 2026-04-27 23:52 | 35.38327 | -97.58895 | 1293 ft | 89 kts | 360° |
| 2026-04-27 23:53 | 35.39147 | -97.58897 | 1316 ft | 142 kts | 357° |
| 2026-04-27 23:53 | 35.40228 | -97.58954 | 1687 ft | 164 kts | 356° |
| 2026-04-27 23:53 | 35.41361 | -97.59299 | 2126 ft | 185 kts | 329° |
| 2026-04-27 23:53 | 35.42357 | -97.60429 | 2528 ft | 206 kts | 315° |
| 2026-04-27 23:54 | 35.43350 | -97.61777 | 2939 ft | 215 kts | 314° |
| 2026-04-27 23:54 | 35.44274 | -97.63221 | 3328 ft | 219 kts | 298° |
| 2026-04-27 23:54 | 35.44580 | -97.65054 | 3715 ft | 229 kts | 272° |
| 2026-04-27 23:54 | 35.44360 | -97.67118 | 4055 ft | 254 kts | 262° |
| 2026-04-27 23:55 | 35.44046 | -97.69295 | 4427 ft | 260 kts | 262° |
| 2026-04-27 23:55 | 35.43743 | -97.71511 | 4806 ft | 259 kts | 262° |
| 2026-04-27 23:55 | 35.43464 | -97.73703 | 5194 ft | 262 kts | 260° |
| 2026-04-27 23:55 | 35.43191 | -97.75844 | 5568 ft | 257 kts | 260° |
| 2026-04-27 23:56 | 35.42909 | -97.78009 | 5958 ft | 258 kts | 259° |
| 2026-04-27 23:56 | 35.42627 | -97.80156 | 6343 ft | 252 kts | 258° |
| 2026-04-27 23:56 | 35.42344 | -97.82317 | 6724 ft | 257 kts | 258° |
| 2026-04-27 23:56 | 35.42064 | -97.84468 | 7104 ft | 259 kts | 258° |
| 2026-04-27 23:57 | 35.41781 | -97.86627 | 7521 ft | 258 kts | 258° |
| 2026-04-27 23:57 | 35.41497 | -97.88791 | 7999 ft | 256 kts | 258° |
| 2026-04-27 23:57 | 35.41212 | -97.90963 | 8495 ft | 255 kts | 258° |
| 2026-04-27 23:57 | 35.40925 | -97.93138 | 9000 ft | 259 kts | 258° |
| 2026-04-27 23:58 | 35.40639 | -97.95310 | 9508 ft | 259 kts | 258° |
| 2026-04-27 23:58 | 35.40352 | -97.97491 | 10006 ft | 258 kts | 258° |
| 2026-04-27 23:58 | 35.40065 | -97.99663 | 10474 ft | 258 kts | 258° |
| 2026-04-27 23:58 | 35.39778 | -98.01833 | 10953 ft | 258 kts | 259° |
| 2026-04-27 23:59 | 35.39490 | -98.04001 | 11431 ft | 258 kts | 259° |
| 2026-04-27 23:59 | 35.39202 | -98.06174 | 11920 ft | 258 kts | 259° |
| 2026-04-27 23:59 | 35.38914 | -98.08342 | 12413 ft | 257 kts | 259° |
| 2026-04-27 23:59 | 35.38624 | -98.10520 | 12923 ft | 258 kts | 260° |
| 2026-04-28 00:00 | 35.38336 | -98.12681 | 13424 ft | 259 kts | 260° |
| 2026-04-28 00:00 | 35.38048 | -98.14823 | 13901 ft | 259 kts | 261° |
| 2026-04-28 00:00 | 35.37758 | -98.17009 | 14362 ft | 260 kts | 261° |
| 2026-04-28 00:00 | 35.37465 | -98.19203 | 14828 ft | 261 kts | 261° |
| 2026-04-28 00:01 | 35.37181 | -98.21401 | 15310 ft | 262 kts | 264° |
| 2026-04-28 00:01 | 35.37170 | -98.23651 | 15799 ft | 265 kts | 270° |
| 2026-04-28 00:01 | 35.37218 | -98.25913 | 16299 ft | 266 kts | 269° |
| 2026-04-28 00:01 | 35.37259 | -98.28199 | 16794 ft | 272 kts | 269° |
| 2026-04-28 00:02 | 35.37301 | -98.30571 | 17318 ft | 283 kts | 269° |
| 2026-04-28 00:02 | 35.37346 | -98.33027 | 17851 ft | 293 kts | 269° |
| 2026-04-28 00:02 | 35.37394 | -98.35562 | 18358 ft | 302 kts | 269° |
| 2026-04-28 00:02 | 35.37441 | -98.38141 | 18823 ft | 311 kts | 269° |
| 2026-04-28 00:03 | 35.37488 | -98.40824 | 19306 ft | 319 kts | 269° |
| 2026-04-28 00:03 | 35.37536 | -98.43578 | 19795 ft | 326 kts | 269° |
| 2026-04-28 00:03 | 35.37582 | -98.46391 | 20320 ft | 333 kts | 269° |
| 2026-04-28 00:03 | 35.37628 | -98.49258 | 20835 ft | 340 kts | 269° |
| 2026-04-28 00:04 | 35.37675 | -98.52175 | 21343 ft | 345 kts | 269° |
| 2026-04-28 00:04 | 35.37769 | -98.58147 | 22388 ft | 355 kts | 269° |
| 2026-04-28 00:04 | 35.37815 | -98.61194 | 22934 ft | 360 kts | 269° |
| 2026-04-28 00:05 | 35.37862 | -98.64280 | 23467 ft | 364 kts | 269° |
| 2026-04-28 00:05 | 35.37908 | -98.67400 | 23925 ft | 367 kts | 269° |
| 2026-04-28 00:05 | 35.37954 | -98.70544 | 24386 ft | 370 kts | 269° |
| 2026-04-28 00:05 | 35.37999 | -98.73709 | 24866 ft | 373 kts | 269° |
| 2026-04-28 00:06 | 35.38043 | -98.76898 | 25344 ft | 375 kts | 268° |
| 2026-04-28 00:06 | 35.38088 | -98.80104 | 25811 ft | 377 kts | 268° |
| 2026-04-28 00:06 | 35.38132 | -98.83326 | 26310 ft | 379 kts | 268° |
| 2026-04-28 00:06 | 35.38174 | -98.86562 | 26801 ft | 380 kts | 268° |
| 2026-04-28 00:07 | 35.38216 | -98.89806 | 27309 ft | 381 kts | 268° |
| 2026-04-28 00:07 | 35.38258 | -98.93060 | 27751 ft | 384 kts | 268° |
| 2026-04-28 00:07 | 35.38297 | -98.96366 | 27829 ft | 394 kts | 268° |
| 2026-04-28 00:07 | 35.38338 | -98.99701 | 27838 ft | 397 kts | 268° |
| 2026-04-28 00:08 | 35.38379 | -99.03084 | 27839 ft | 398 kts | 268° |
| 2026-04-28 00:08 | 35.38419 | -99.06490 | 27845 ft | 399 kts | 268° |
| 2026-04-28 00:08 | 35.38429 | -99.09894 | 27868 ft | 398 kts | 265° |
| 2026-04-28 00:08 | 35.38122 | -99.13247 | 27869 ft | 395 kts | 258° |
| 2026-04-28 00:09 | 35.37453 | -99.16508 | 27863 ft | 395 kts | 252° |
| 2026-04-28 00:09 | 35.36432 | -99.19630 | 27868 ft | 395 kts | 245° |
| 2026-04-28 00:09 | 35.35071 | -99.22571 | 27866 ft | 397 kts | 239° |
| 2026-04-28 00:09 | 35.33398 | -99.25276 | 27866 ft | 400 kts | 234° |
| 2026-04-28 00:10 | 35.31626 | -99.27906 | 27864 ft | 401 kts | 234° |
| 2026-04-28 00:10 | 35.29861 | -99.30544 | 27869 ft | 400 kts | 234° |
| 2026-04-28 00:10 | 35.28092 | -99.33186 | 27859 ft | 400 kts | 234° |
| 2026-04-28 00:10 | 35.26418 | -99.35895 | 27846 ft | 398 kts | 240° |
| 2026-04-28 00:11 | 35.25171 | -99.38904 | 27822 ft | 396 kts | 249° |
| 2026-04-28 00:11 | 35.24338 | -99.42112 | 27818 ft | 396 kts | 256° |
| 2026-04-28 00:11 | 35.23942 | -99.45394 | 27815 ft | 397 kts | 264° |
| 2026-04-28 00:11 | 35.23923 | -99.48778 | 27828 ft | 397 kts | 268° |
| 2026-04-28 00:12 | 35.23959 | -99.52152 | 27830 ft | 396 kts | 268° |
| 2026-04-28 00:12 | 35.23979 | -99.55527 | 27825 ft | 397 kts | 267° |
| 2026-04-28 00:12 | 35.23994 | -99.58925 | 27820 ft | 405 kts | 267° |
| 2026-04-28 00:12 | 35.24014 | -99.62406 | 27820 ft | 411 kts | 267° |
| 2026-04-28 00:13 | 35.24040 | -99.65902 | 27815 ft | 412 kts | 268° |
| 2026-04-28 00:13 | 35.24063 | -99.69407 | 27812 ft | 412 kts | 267° |
| 2026-04-28 00:13 | 35.24079 | -99.72921 | 27805 ft | 412 kts | 267° |
| 2026-04-28 00:13 | 35.24095 | -99.76432 | 27802 ft | 412 kts | 267° |
| 2026-04-28 00:14 | 35.24112 | -99.79941 | 27802 ft | 412 kts | 267° |
| 2026-04-28 00:14 | 35.24129 | -99.83447 | 27805 ft | 412 kts | 267° |
| 2026-04-28 00:14 | 35.24144 | -99.86967 | 27808 ft | 415 kts | 267° |
| 2026-04-28 00:14 | 35.24157 | -99.90483 | 27807 ft | 413 kts | 267° |
| 2026-04-28 00:15 | 35.24169 | -99.93957 | 27802 ft | 413 kts | 267° |
| 2026-04-28 00:15 | 35.24181 | -99.97472 | 27809 ft | 413 kts | 267° |
| 2026-04-28 00:15 | 35.24192 | -100.00987 | 27811 ft | 413 kts | 267° |
| 2026-04-28 00:15 | 35.24202 | -100.04505 | 27816 ft | 414 kts | 267° |
| 2026-04-28 00:16 | 35.24211 | -100.08027 | 27816 ft | 414 kts | 267° |
| 2026-04-28 00:16 | 35.24218 | -100.11554 | 27813 ft | 414 kts | 267° |
| 2026-04-28 00:16 | 35.24225 | -100.15082 | 27814 ft | 414 kts | 267° |
| 2026-04-28 00:16 | 35.24231 | -100.18611 | 27813 ft | 414 kts | 267° |
| 2026-04-28 00:17 | 35.24236 | -100.22127 | 27810 ft | 412 kts | 266° |
| 2026-04-28 00:17 | 35.24240 | -100.25575 | 27811 ft | 411 kts | 266° |
| 2026-04-28 00:17 | 35.24241 | -100.29072 | 27811 ft | 411 kts | 266° |
| 2026-04-28 00:17 | 35.24242 | -100.32571 | 27812 ft | 411 kts | 266° |
| 2026-04-28 00:18 | 35.24243 | -100.36067 | 27810 ft | 411 kts | 267° |
| 2026-04-28 00:18 | 35.24243 | -100.39569 | 27811 ft | 412 kts | 267° |
| 2026-04-28 00:18 | 35.24242 | -100.43076 | 27809 ft | 412 kts | 266° |
| 2026-04-28 00:18 | 35.24239 | -100.46588 | 27829 ft | 411 kts | 266° |
| 2026-04-28 00:19 | 35.24235 | -100.50093 | 27877 ft | 415 kts | 266° |
| 2026-04-28 00:19 | 35.24231 | -100.53616 | 27875 ft | 413 kts | 267° |
| 2026-04-28 00:19 | 35.24227 | -100.57133 | 27880 ft | 413 kts | 266° |
| 2026-04-28 00:19 | 35.24220 | -100.60645 | 27877 ft | 412 kts | 266° |
| 2026-04-28 00:20 | 35.24212 | -100.64156 | 27877 ft | 412 kts | 266° |
| 2026-04-28 00:20 | 35.24202 | -100.67655 | 27872 ft | 412 kts | 266° |
| 2026-04-28 00:20 | 35.24193 | -100.71162 | 27870 ft | 412 kts | 266° |
| 2026-04-28 00:20 | 35.24182 | -100.74664 | 27874 ft | 412 kts | 266° |
| 2026-04-28 00:21 | 35.24170 | -100.78165 | 27867 ft | 412 kts | 266° |
| 2026-04-28 00:21 | 35.24158 | -100.81629 | 27873 ft | 412 kts | 266° |
| 2026-04-28 00:21 | 35.24143 | -100.85159 | 27878 ft | 416 kts | 266° |
| 2026-04-28 00:21 | 35.24129 | -100.88699 | 27873 ft | 416 kts | 266° |
| 2026-04-28 00:22 | 35.24114 | -100.92239 | 27879 ft | 417 kts | 266° |
| 2026-04-28 00:22 | 35.24096 | -100.95795 | 27875 ft | 417 kts | 266° |
| 2026-04-28 00:22 | 35.24079 | -100.99341 | 27879 ft | 416 kts | 266° |
| 2026-04-28 00:22 | 35.24061 | -101.02887 | 27875 ft | 416 kts | 266° |
| 2026-04-28 00:23 | 35.24040 | -101.06428 | 27870 ft | 417 kts | 266° |
| 2026-04-28 00:23 | 35.24018 | -101.09970 | 27865 ft | 416 kts | 266° |
| 2026-04-28 00:23 | 35.23997 | -101.13507 | 27892 ft | 416 kts | 266° |
| 2026-04-28 00:23 | 35.23974 | -101.17041 | 27874 ft | 414 kts | 266° |
| 2026-04-28 00:24 | 35.23950 | -101.20564 | 27873 ft | 415 kts | 266° |
| 2026-04-28 00:24 | 35.23923 | -101.24088 | 27878 ft | 414 kts | 266° |
| 2026-04-28 00:24 | 35.23898 | -101.27613 | 27882 ft | 414 kts | 266° |
| 2026-04-28 00:24 | 35.23871 | -101.31142 | 27907 ft | 414 kts | 266° |
| 2026-04-28 00:25 | 35.23844 | -101.34656 | 27907 ft | 413 kts | 265° |
| 2026-04-28 00:25 | 35.23814 | -101.38170 | 27921 ft | 413 kts | 266° |
| 2026-04-28 00:25 | 35.23783 | -101.41680 | 27936 ft | 413 kts | 265° |
| 2026-04-28 00:25 | 35.23752 | -101.45149 | 27951 ft | 413 kts | 265° |
| 2026-04-28 00:26 | 35.23720 | -101.48656 | 27964 ft | 412 kts | 265° |
| 2026-04-28 00:26 | 35.23687 | -101.52170 | 27978 ft | 413 kts | 265° |
| 2026-04-28 00:26 | 35.23653 | -101.55689 | 27992 ft | 413 kts | 266° |
| 2026-04-28 00:27 | 35.23582 | -101.62714 | 28009 ft | 413 kts | 266° |
| 2026-04-28 00:27 | 35.23505 | -101.69751 | 28009 ft | 414 kts | 265° |
| 2026-04-28 00:28 | 35.23370 | -101.76796 | 28010 ft | 414 kts | 265° |
| 2026-04-28 00:28 | 35.23213 | -101.83840 | 28001 ft | 414 kts | 265° |
| 2026-04-28 00:28 | 35.23146 | -101.87359 | 27987 ft | 414 kts | 265° |
| 2026-04-28 00:29 | 35.23070 | -101.90874 | 27972 ft | 414 kts | 265° |
| 2026-04-28 00:29 | 35.22989 | -101.94392 | 27957 ft | 413 kts | 265° |
| 2026-04-28 00:29 | 35.22911 | -101.97865 | 27943 ft | 413 kts | 265° |
| 2026-04-28 00:29 | 35.22835 | -102.01379 | 27927 ft | 413 kts | 265° |
| 2026-04-28 00:30 | 35.22755 | -102.04892 | 27905 ft | 414 kts | 265° |
| 2026-04-28 00:30 | 35.22673 | -102.08418 | 27891 ft | 414 kts | 265° |
| 2026-04-28 00:30 | 35.22590 | -102.11947 | 27876 ft | 415 kts | 265° |
| 2026-04-28 00:30 | 35.22508 | -102.15474 | 27866 ft | 414 kts | 265° |
| 2026-04-28 00:31 | 35.22424 | -102.18994 | 27874 ft | 414 kts | 265° |
| 2026-04-28 00:31 | 35.22337 | -102.22522 | 27873 ft | 415 kts | 265° |
| 2026-04-28 00:31 | 35.22251 | -102.26055 | 27874 ft | 415 kts | 265° |
| 2026-04-28 00:31 | 35.22165 | -102.29588 | 27873 ft | 415 kts | 265° |
| 2026-04-28 00:32 | 35.22078 | -102.33067 | 27873 ft | 414 kts | 265° |
| 2026-04-28 00:32 | 35.21987 | -102.36589 | 27866 ft | 414 kts | 265° |
| 2026-04-28 00:32 | 35.21898 | -102.40105 | 27866 ft | 414 kts | 265° |
| 2026-04-28 00:32 | 35.21807 | -102.43628 | 27869 ft | 413 kts | 265° |
| 2026-04-28 00:33 | 35.21714 | -102.47133 | 27872 ft | 413 kts | 265° |
| 2026-04-28 00:33 | 35.21621 | -102.50646 | 27876 ft | 413 kts | 265° |
| 2026-04-28 00:33 | 35.21527 | -102.54163 | 27877 ft | 414 kts | 265° |
| 2026-04-28 00:33 | 35.21432 | -102.57680 | 27877 ft | 414 kts | 265° |
| 2026-04-28 00:34 | 35.21335 | -102.61204 | 27879 ft | 414 kts | 265° |
| 2026-04-28 00:34 | 35.21239 | -102.64677 | 27882 ft | 413 kts | 265° |
| 2026-04-28 00:34 | 35.21142 | -102.68188 | 27884 ft | 413 kts | 265° |
| 2026-04-28 00:34 | 35.21042 | -102.71709 | 27883 ft | 413 kts | 265° |
| 2026-04-28 00:35 | 35.20942 | -102.75223 | 27881 ft | 413 kts | 265° |
| 2026-04-28 00:35 | 35.20840 | -102.78739 | 27879 ft | 414 kts | 265° |
| 2026-04-28 00:35 | 35.20737 | -102.82264 | 27883 ft | 414 kts | 265° |
| 2026-04-28 00:35 | 35.20634 | -102.85789 | 27883 ft | 415 kts | 265° |
| 2026-04-28 00:36 | 35.20529 | -102.89316 | 27884 ft | 414 kts | 265° |
| 2026-04-28 00:36 | 35.20425 | -102.92799 | 27877 ft | 414 kts | 265° |
| 2026-04-28 00:36 | 35.20319 | -102.96313 | 27877 ft | 414 kts | 265° |
| 2026-04-28 00:36 | 35.20211 | -102.99841 | 27876 ft | 413 kts | 265° |
| 2026-04-28 00:37 | 35.20102 | -103.03355 | 27876 ft | 413 kts | 265° |
| 2026-04-28 00:37 | 35.19992 | -103.06864 | 27866 ft | 413 kts | 265° |
| 2026-04-28 00:37 | 35.19881 | -103.10376 | 27865 ft | 413 kts | 265° |
| 2026-04-28 00:37 | 35.19770 | -103.13887 | 27856 ft | 414 kts | 265° |
| 2026-04-28 00:38 | 35.19657 | -103.17423 | 27862 ft | 417 kts | 265° |
| 2026-04-28 00:38 | 35.19582 | -103.19763 | 27871 ft | 415 kts | 265° |
| 2026-04-28 00:38 | 35.19467 | -103.23301 | 27876 ft | 416 kts | 265° |
| 2026-04-28 00:38 | 35.19351 | -103.26831 | 27888 ft | 416 kts | 265° |
| 2026-04-28 00:39 | 35.19197 | -103.31508 | 27907 ft | 415 kts | 265° |
| 2026-04-28 00:39 | 35.19079 | -103.35033 | 27919 ft | 415 kts | 265° |
| 2026-04-28 00:39 | 35.18999 | -103.37417 | 27925 ft | 415 kts | 265° |
| 2026-04-28 00:39 | 35.18879 | -103.40942 | 27939 ft | 415 kts | 265° |
| 2026-04-28 00:40 | 35.18758 | -103.44465 | 27953 ft | 415 kts | 265° |
| 2026-04-28 00:40 | 35.18636 | -103.47996 | 27970 ft | 415 kts | 265° |
| 2026-04-28 00:40 | 35.18514 | -103.51482 | 27967 ft | 417 kts | 265° |
| 2026-04-28 00:40 | 35.18389 | -103.55043 | 27971 ft | 420 kts | 265° |
| 2026-04-28 00:41 | 35.18264 | -103.58605 | 27970 ft | 420 kts | 265° |
| 2026-04-28 00:41 | 35.18133 | -103.62167 | 27970 ft | 420 kts | 264° |
| 2026-04-28 00:41 | 35.17973 | -103.65732 | 27971 ft | 420 kts | 264° |
| 2026-04-28 00:41 | 35.17802 | -103.69301 | 27973 ft | 420 kts | 264° |
| 2026-04-28 00:42 | 35.17646 | -103.72862 | 27966 ft | 420 kts | 264° |
| 2026-04-28 00:42 | 35.17495 | -103.76426 | 27953 ft | 420 kts | 264° |
| 2026-04-28 00:42 | 35.17338 | -103.79988 | 27937 ft | 420 kts | 264° |
| 2026-04-28 00:42 | 35.17175 | -103.83551 | 27922 ft | 420 kts | 264° |
| 2026-04-28 00:43 | 35.17012 | -103.87117 | 27917 ft | 419 kts | 264° |
| 2026-04-28 00:43 | 35.16851 | -103.90673 | 27900 ft | 419 kts | 264° |
| 2026-04-28 00:43 | 35.16689 | -103.94231 | 27885 ft | 419 kts | 264° |
| 2026-04-28 00:43 | 35.16526 | -103.97779 | 27868 ft | 418 kts | 264° |
| 2026-04-28 00:44 | 35.16363 | -104.01288 | 27850 ft | 418 kts | 264° |
| 2026-04-28 00:44 | 35.16199 | -104.04831 | 27840 ft | 418 kts | 264° |
| 2026-04-28 00:44 | 35.16033 | -104.08378 | 27835 ft | 418 kts | 264° |
| 2026-04-28 00:44 | 35.15866 | -104.11930 | 27832 ft | 418 kts | 264° |
| 2026-04-28 00:45 | 35.15697 | -104.15483 | 27836 ft | 418 kts | 264° |
| 2026-04-28 00:45 | 35.15528 | -104.19039 | 27837 ft | 418 kts | 264° |
| 2026-04-28 00:45 | 35.15358 | -104.22588 | 27842 ft | 418 kts | 263° |
| 2026-04-28 00:45 | 35.15186 | -104.26142 | 27843 ft | 419 kts | 263° |
| 2026-04-28 00:46 | 35.15014 | -104.29695 | 27847 ft | 419 kts | 264° |
| 2026-04-28 00:46 | 35.14841 | -104.33253 | 27861 ft | 419 kts | 263° |
| 2026-04-28 00:46 | 35.14667 | -104.36804 | 27870 ft | 419 kts | 263° |
| 2026-04-28 00:46 | 35.14492 | -104.40314 | 27887 ft | 419 kts | 263° |
| 2026-04-28 00:47 | 35.14315 | -104.43864 | 27900 ft | 419 kts | 263° |
| 2026-04-28 00:47 | 35.14138 | -104.47413 | 27911 ft | 418 kts | 263° |
| 2026-04-28 00:47 | 35.13960 | -104.50964 | 27926 ft | 419 kts | 263° |
| 2026-04-28 00:47 | 35.13780 | -104.54520 | 27933 ft | 419 kts | 263° |
| 2026-04-28 00:48 | 35.13599 | -104.58070 | 27945 ft | 419 kts | 263° |
| 2026-04-28 00:48 | 35.13417 | -104.61627 | 27950 ft | 418 kts | 263° |
| 2026-04-28 00:48 | 35.13235 | -104.65177 | 27957 ft | 418 kts | 263° |
| 2026-04-28 00:48 | 35.13051 | -104.68722 | 27955 ft | 419 kts | 263° |
| 2026-04-28 00:49 | 35.12868 | -104.72229 | 27950 ft | 418 kts | 263° |
| 2026-04-28 00:49 | 35.12682 | -104.75776 | 27945 ft | 419 kts | 263° |
| 2026-04-28 00:49 | 35.12496 | -104.79324 | 27856 ft | 420 kts | 263° |
| 2026-04-28 00:49 | 35.12309 | -104.82874 | 27583 ft | 416 kts | 263° |
| 2026-04-28 00:50 | 35.12122 | -104.86402 | 27308 ft | 415 kts | 263° |
| 2026-04-28 00:50 | 35.11933 | -104.89917 | 27038 ft | 414 kts | 263° |
| 2026-04-28 00:50 | 35.11744 | -104.93414 | 26794 ft | 412 kts | 263° |
| 2026-04-28 00:50 | 35.11556 | -104.96890 | 26528 ft | 410 kts | 263° |
| 2026-04-28 00:51 | 35.11367 | -105.00362 | 26257 ft | 409 kts | 263° |
| 2026-04-28 00:51 | 35.11179 | -105.03814 | 26012 ft | 407 kts | 263° |
| 2026-04-28 00:51 | 35.10840 | -105.07232 | 25767 ft | 404 kts | 258° |
| 2026-04-28 00:51 | 35.10236 | -105.10578 | 25540 ft | 402 kts | 255° |
| 2026-04-28 00:52 | 35.09572 | -105.13893 | 25310 ft | 402 kts | 256° |
| 2026-04-28 00:52 | 35.09044 | -105.17205 | 25067 ft | 401 kts | 258° |
| 2026-04-28 00:52 | 35.08591 | -105.20555 | 24834 ft | 400 kts | 258° |
| 2026-04-28 00:52 | 35.08087 | -105.23894 | 24620 ft | 399 kts | 257° |
| 2026-04-28 00:53 | 35.07534 | -105.27198 | 24385 ft | 396 kts | 257° |
| 2026-04-28 00:53 | 35.06996 | -105.30493 | 24176 ft | 392 kts | 257° |
| 2026-04-28 00:53 | 35.06495 | -105.33744 | 23780 ft | 390 kts | 258° |
| 2026-04-28 00:53 | 35.05993 | -105.36986 | 23382 ft | 388 kts | 257° |
| 2026-04-28 00:54 | 35.05477 | -105.40214 | 22897 ft | 387 kts | 257° |
| 2026-04-28 00:54 | 35.04960 | -105.43425 | 22421 ft | 385 kts | 257° |
| 2026-04-28 00:54 | 35.04450 | -105.46626 | 21967 ft | 383 kts | 257° |
| 2026-04-28 00:54 | 35.03952 | -105.49779 | 21466 ft | 371 kts | 257° |
| 2026-04-28 00:55 | 35.03467 | -105.52820 | 21020 ft | 359 kts | 257° |
| 2026-04-28 00:55 | 35.02994 | -105.55759 | 20579 ft | 347 kts | 257° |
| 2026-04-28 00:55 | 35.02534 | -105.58620 | 20150 ft | 342 kts | 257° |
| 2026-04-28 00:55 | 35.02075 | -105.61477 | 19730 ft | 342 kts | 257° |
| 2026-04-28 00:56 | 35.01625 | -105.64278 | 19346 ft | 340 kts | 257° |
| 2026-04-28 00:56 | 35.01163 | -105.67141 | 18944 ft | 347 kts | 257° |
| 2026-04-28 00:56 | 35.00700 | -105.70008 | 18545 ft | 343 kts | 257° |
| 2026-04-28 00:56 | 35.00564 | -105.70854 | 18429 ft | 344 kts | 257° |
| 2026-04-28 00:57 | 35.00552 | -105.70927 | 18418 ft | 344 kts | 257° |
| 2026-04-28 00:58 | 35.00088 | -105.73786 | 18007 ft | 344 kts | 257° |
| 2026-04-28 00:58 | 34.99622 | -105.76651 | 17557 ft | 344 kts | 257° |
| 2026-04-28 00:58 | 34.99159 | -105.79512 | 17111 ft | 343 kts | 256° |
| 2026-04-28 00:58 | 34.98697 | -105.82362 | 16667 ft | 342 kts | 256° |
| 2026-04-28 00:59 | 34.98236 | -105.85202 | 16245 ft | 341 kts | 256° |
| 2026-04-28 00:59 | 34.97778 | -105.88009 | 15825 ft | 342 kts | 256° |
| 2026-04-28 00:59 | 34.97313 | -105.90856 | 15411 ft | 342 kts | 256° |
| 2026-04-28 00:59 | 34.96849 | -105.93698 | 14981 ft | 341 kts | 256° |
| 2026-04-28 01:00 | 34.96386 | -105.96529 | 14574 ft | 341 kts | 256° |
| 2026-04-28 01:00 | 34.96032 | -105.98679 | 14270 ft | 340 kts | 256° |
| 2026-04-28 01:00 | 34.95985 | -105.98964 | 14228 ft | 339 kts | 256° |
| 2026-04-28 01:01 | 34.95630 | -106.01815 | 13941 ft | 340 kts | 264° |
| 2026-04-28 01:01 | 34.95662 | -106.04582 | 13914 ft | 321 kts | 267° |
| 2026-04-28 01:01 | 34.95699 | -106.07224 | 13902 ft | 302 kts | 266° |
| 2026-04-28 01:01 | 34.95722 | -106.09679 | 13925 ft | 279 kts | 266° |
| 2026-04-28 01:02 | 34.95739 | -106.12054 | 13742 ft | 278 kts | 266° |
| 2026-04-28 01:02 | 34.95762 | -106.14394 | 13375 ft | 277 kts | 266° |
| 2026-04-28 01:02 | 34.95787 | -106.16732 | 12994 ft | 275 kts | 266° |
| 2026-04-28 01:02 | 34.95810 | -106.19066 | 12621 ft | 275 kts | 266° |
| 2026-04-28 01:03 | 34.95832 | -106.21413 | 12244 ft | 277 kts | 266° |
| 2026-04-28 01:03 | 34.95856 | -106.23757 | 11876 ft | 277 kts | 267° |
| 2026-04-28 01:03 | 34.95880 | -106.26095 | 11510 ft | 275 kts | 267° |
| 2026-04-28 01:03 | 34.95903 | -106.28415 | 11160 ft | 275 kts | 267° |
| 2026-04-28 01:04 | 34.95924 | -106.30758 | 10804 ft | 272 kts | 267° |
| 2026-04-28 01:04 | 34.95946 | -106.33089 | 10455 ft | 276 kts | 268° |
| 2026-04-28 01:04 | 34.95968 | -106.35388 | 10119 ft | 270 kts | 267° |
| 2026-04-28 01:04 | 34.95991 | -106.37606 | 9967 ft | 260 kts | 266° |
| 2026-04-28 01:05 | 34.95912 | -106.39800 | 9963 ft | 256 kts | 263° |
| 2026-04-28 01:05 | 34.95848 | -106.41992 | 9959 ft | 253 kts | 265° |
| 2026-04-28 01:05 | 34.95797 | -106.44114 | 9979 ft | 257 kts | 264° |
| 2026-04-28 01:05 | 34.95727 | -106.46278 | 9985 ft | 258 kts | 264° |
| 2026-04-28 01:06 | 34.95652 | -106.48459 | 9990 ft | 257 kts | 264° |
| 2026-04-28 01:06 | 34.95579 | -106.50659 | 9990 ft | 258 kts | 264° |
| 2026-04-28 01:06 | 34.95508 | -106.52862 | 10005 ft | 259 kts | 264° |
| 2026-04-28 01:06 | 34.95437 | -106.55066 | 10007 ft | 257 kts | 264° |
| 2026-04-28 01:07 | 34.95365 | -106.57099 | 9994 ft | 230 kts | 263° |
| 2026-04-28 01:07 | 34.95272 | -106.59032 | 9994 ft | 222 kts | 262° |
| 2026-04-28 01:07 | 34.95180 | -106.60941 | 9990 ft | 223 kts | 263° |
| 2026-04-28 01:07 | 34.95096 | -106.62843 | 10004 ft | 228 kts | 263° |
| 2026-04-28 01:08 | 34.95015 | -106.64739 | 9908 ft | 227 kts | 262° |
| 2026-04-28 01:08 | 34.94935 | -106.66598 | 9656 ft | 218 kts | 262° |
| 2026-04-28 01:08 | 34.94854 | -106.68408 | 9390 ft | 210 kts | 263° |
| 2026-04-28 01:08 | 34.94872 | -106.70174 | 8991 ft | 215 kts | 278° |
| 2026-04-28 01:09 | 34.95688 | -106.71719 | 8566 ft | 224 kts | 320° |
| 2026-04-28 01:09 | 34.97182 | -106.72277 | 8152 ft | 231 kts | 1° |
| 2026-04-28 01:09 | 34.98738 | -106.71804 | 7791 ft | 227 kts | 10° |
| 2026-04-28 01:09 | 35.00219 | -106.71848 | 7422 ft | 208 kts | 344° |
| 2026-04-28 01:10 | 35.01580 | -106.72462 | 7208 ft | 210 kts | 335° |
| 2026-04-28 01:10 | 35.03001 | -106.72646 | 7016 ft | 208 kts | 11° |
| 2026-04-28 01:10 | 35.04199 | -106.71770 | 6855 ft | 202 kts | 53° |
| 2026-04-28 01:10 | 35.04579 | -106.70247 | 6668 ft | 178 kts | 95° |
| 2026-04-28 01:11 | 35.04503 | -106.68725 | 6490 ft | 180 kts | 96° |
| 2026-04-28 01:11 | 35.04454 | -106.67214 | 6285 ft | 180 kts | 92° |
| 2026-04-28 01:11 | 35.04454 | -106.65698 | 6040 ft | 177 kts | 90° |
| 2026-04-28 01:11 | 35.04451 | -106.64204 | 5787 ft | 172 kts | 89° |
| 2026-04-28 01:12 | 35.04454 | -106.62762 | 5484 ft | 168 kts | 92° |
| 2026-04-28 01:12 | 35.04436 | -106.61376 | 5349 ft | 158 kts | 91° |
| 2026-04-28 01:12 | 35.04430 | -106.60160 | 5317 ft | 112 kts | 90° |
| 2026-04-28 01:12 | 35.04417 | -106.59488 | 5320 ft | 45 kts | 87° |
| 2026-04-28 01:13 | 35.04475 | -106.59216 | 5317 ft | 25 kts | 65° |
| 2026-04-28 01:13 | 35.04600 | -106.59230 | 5319 ft | 17 kts | 264° |
| 2026-04-28 01:13 | 35.04590 | -106.59419 | 5319 ft | 27 kts | 272° |
| 2026-04-28 01:14 | 35.04584 | -106.59760 | 5315 ft | 46 kts | 270° |
| 2026-04-28 01:14 | 35.04651 | -106.60104 | 5323 ft | 45 kts | 269° |
| 2026-04-28 01:14 | 35.04650 | -106.60531 | 5322 ft | 52 kts | 271° |
| 2026-04-28 01:14 | 35.04648 | -106.60941 | 5323 ft | 45 kts | 270° |
| 2026-04-28 01:15 | 35.04669 | -106.61273 | 5315 ft | 30 kts | 271° |
| 2026-04-28 01:15 | 35.04684 | -106.61332 | 5317 ft | 0 kts | 329° |
| 2026-04-28 01:15 | 35.04707 | -106.61331 | 5314 ft | 9 kts | 8° |
| 2026-04-28 01:15 | 35.04733 | -106.61357 | 5318 ft | 7 kts | 284° |
| 2026-04-28 01:16 | 35.04735 | -106.61389 | 5322 ft | 0 kts | 267° |
| 2026-04-28 01:16 | 35.04735 | -106.61391 | 5317 ft | 0 kts | 267° |